createdAt,value
2023-03-01T00:01:52.955Z,98754.58
2023-03-01T00:04:25.613Z,98752.80
2023-03-01T00:06:58.877Z,98750.59
2023-03-01T00:09:31.653Z,98748.51
2023-03-01T00:12:04.392Z,98749.54
2023-03-01T00:14:38.805Z,98752.05
2023-03-01T00:17:15.078Z,98749.40
2023-03-01T00:19:48.891Z,98753.57
2023-03-01T00:22:21.692Z,98750.47
2023-03-01T00:24:54.241Z,98749.56
2023-03-01T00:27:26.830Z,98748.29
2023-03-01T00:29:59.324Z,98744.04
2023-03-01T00:32:32.556Z,98745.44
2023-03-01T00:35:05.225Z,98743.55
2023-03-01T00:37:38.185Z,98741.56
2023-03-01T00:40:13.326Z,98742.98
2023-03-01T00:42:46.148Z,98741.44
2023-03-01T00:45:19.070Z,98737.64
2023-03-01T00:47:52.620Z,98734.91
2023-03-01T00:50:26.590Z,98731.45
2023-03-01T00:52:59.698Z,98733.20
2023-03-01T00:55:35.026Z,98728.09
2023-03-01T00:58:08.879Z,98728.08
2023-03-01T01:00:39.449Z,98723.07
2023-03-01T01:03:12.136Z,98718.71
2023-03-01T01:05:44.657Z,98717.38
2023-03-01T01:08:17.378Z,98715.70
2023-03-01T01:10:50.397Z,98718.04
2023-03-01T01:13:23.398Z,98717.70
2023-03-01T01:15:56.424Z,98716.69
2023-03-01T01:18:29.903Z,98711.20
2023-03-01T01:21:05.700Z,98710.95
2023-03-01T01:23:39.239Z,98708.66
2023-03-01T01:26:15.340Z,98708.46
2023-03-01T01:28:48.477Z,98708.98
2023-03-01T01:31:21.510Z,98708.05
2023-03-01T01:33:55.135Z,98706.98
2023-03-01T01:36:29.152Z,98709.05
2023-03-01T01:39:00.233Z,98711.06
2023-03-01T01:41:36.401Z,98707.80
2023-03-01T01:44:21.694Z,98702.65
2023-03-01T01:46:58.749Z,98702.70
2023-03-01T01:49:41.642Z,98699.39
2023-03-01T01:52:18.019Z,98694.13
2023-03-01T01:54:56.837Z,98701.14
2023-03-01T01:57:35.434Z,98698.64
2023-03-01T02:00:14.104Z,98693.67
2023-03-01T02:02:53.282Z,98696.36
2023-03-01T02:05:35.805Z,98690.49
2023-03-01T02:08:08.904Z,98679.32
2023-03-01T02:10:43.473Z,98678.95
2023-03-01T02:13:16.635Z,98679.91
2023-03-01T02:15:49.496Z,98682.33
2023-03-01T02:18:26.204Z,98685.05
2023-03-01T02:21:11.461Z,98685.56
2023-03-01T02:23:44.350Z,98680.84
2023-03-01T02:26:26.839Z,98684.73
2023-03-01T02:28:59.921Z,98684.55
2023-03-01T02:31:45.018Z,98685.48
2023-03-01T02:34:21.276Z,98688.13
2023-03-01T02:36:57.836Z,98683.34
2023-03-01T02:39:34.396Z,98685.68
2023-03-01T02:42:08.675Z,98695.76
2023-03-01T02:44:41.386Z,98699.10
2023-03-01T02:47:14.088Z,98697.29
2023-03-01T02:49:47.345Z,98693.44
2023-03-01T02:52:48.641Z,98700.84
2023-03-01T02:55:22.152Z,98698.91
2023-03-01T02:57:55.407Z,98699.62
2023-03-01T03:00:34.628Z,98693.61
2023-03-01T03:03:07.556Z,98703.26
2023-03-01T03:05:40.490Z,98704.80
2023-03-01T03:08:13.038Z,98701.70
2023-03-01T03:10:46.236Z,98695.86
2023-03-01T03:13:20.433Z,98688.63
2023-03-01T03:15:53.494Z,98693.89
2023-03-01T03:18:28.306Z,98687.04
2023-03-01T03:21:00.868Z,98686.89
2023-03-01T03:23:33.627Z,98686.09
2023-03-01T03:26:06.487Z,98676.90
2023-03-01T03:28:41.182Z,98671.72
2023-03-01T03:31:13.647Z,98665.52
2023-03-01T03:33:46.387Z,98665.85
2023-03-01T03:36:22.156Z,98669.52
2023-03-01T03:38:55.553Z,98675.42
2023-03-01T03:41:28.535Z,98678.44
2023-03-01T03:44:01.013Z,98674.19
2023-03-01T03:46:34.172Z,98677.65
2023-03-01T03:49:07.055Z,98682.66
2023-03-01T03:51:39.655Z,98685.20
2023-03-01T03:54:12.436Z,98684.70
2023-03-01T03:56:45.669Z,98682.81
2023-03-01T03:59:18.154Z,98683.33
2023-03-01T04:01:50.713Z,98678.39
2023-03-01T04:04:23.792Z,98674.67
2023-03-01T04:06:56.555Z,98674.47
2023-03-01T04:09:31.486Z,98669.75
2023-03-01T04:12:04.296Z,98669.00
2023-03-01T04:14:37.203Z,98668.49
2023-03-01T04:17:09.725Z,98666.16
2023-03-01T04:19:45.278Z,98668.19
2023-03-01T04:22:19.778Z,98664.43
2023-03-01T04:24:52.581Z,98657.64
2023-03-01T04:27:26.157Z,98659.70
2023-03-01T04:30:00.766Z,98658.33
2023-03-01T04:32:33.332Z,98651.46
2023-03-01T04:35:06.424Z,98649.13
2023-03-01T04:37:39.515Z,98646.99
2023-03-01T04:40:17.668Z,98652.93
2023-03-01T04:42:50.588Z,98653.19
2023-03-01T04:45:23.176Z,98650.45
2023-03-01T04:47:55.824Z,98649.23
2023-03-01T04:50:28.795Z,98647.52
2023-03-01T04:53:01.607Z,98646.92
2023-03-01T04:55:36.374Z,98650.63
2023-03-01T04:58:09.119Z,98651.91
2023-03-01T05:00:41.868Z,98655.71
2023-03-01T05:03:19.417Z,98655.75
2023-03-01T05:05:53.812Z,98653.81
2023-03-01T05:08:26.337Z,98651.81
2023-03-01T05:10:58.886Z,98657.33
2023-03-01T05:13:31.774Z,98650.73
2023-03-01T05:16:05.905Z,98649.02
2023-03-01T05:18:38.477Z,98649.14
2023-03-01T05:21:17.493Z,98653.85
2023-03-01T05:23:50.703Z,98656.02
2023-03-01T05:26:28.967Z,98659.51
2023-03-01T05:29:02.482Z,98664.04
2023-03-01T05:31:35.060Z,98661.48
2023-03-01T05:34:07.835Z,98656.84
2023-03-01T05:36:40.671Z,98659.03
2023-03-01T05:39:15.182Z,98659.07
2023-03-01T05:41:47.706Z,98663.66
2023-03-01T05:44:20.668Z,98665.44
2023-03-01T05:46:53.906Z,98671.11
2023-03-01T05:49:27.416Z,98671.90
2023-03-01T05:52:00.022Z,98675.64
2023-03-01T05:54:34.768Z,98676.27
2023-03-01T05:57:07.570Z,98679.65
2023-03-01T05:59:42.769Z,98681.19
2023-03-01T06:02:18.689Z,98681.61
2023-03-01T06:04:51.264Z,98685.75
2023-03-01T06:07:24.042Z,98679.80
2023-03-01T06:10:02.267Z,98680.48
2023-03-01T06:12:37.190Z,98679.22
2023-03-01T06:15:11.975Z,98681.29
2023-03-01T06:17:47.630Z,98682.24
2023-03-01T06:20:22.251Z,98678.45
2023-03-01T06:22:55.347Z,98676.88
2023-03-01T06:25:29.951Z,98671.30
2023-03-01T06:28:02.785Z,98669.13
2023-03-01T06:30:36.544Z,98662.11
2023-03-01T06:33:09.393Z,98658.70
2023-03-01T06:35:41.904Z,98654.10
2023-03-01T06:38:16.302Z,98642.53
2023-03-01T06:40:54.025Z,98640.77
2023-03-01T06:43:27.333Z,98638.49
2023-03-01T06:46:00.300Z,98637.53
2023-03-01T06:48:35.335Z,98630.09
2023-03-01T06:51:08.145Z,98630.48
2023-03-01T06:53:41.096Z,98626.73
2023-03-01T06:56:13.661Z,98626.91
2023-03-01T06:58:46.808Z,98625.82
2023-03-01T07:01:19.563Z,98627.82
2023-03-01T07:03:52.350Z,98624.52
2023-03-01T07:06:24.999Z,98628.85
2023-03-01T07:08:57.917Z,98626.27
2023-03-01T07:11:30.817Z,98629.17
2023-03-01T07:14:03.858Z,98640.52
2023-03-01T07:16:37.503Z,98642.91
2023-03-01T07:19:10.400Z,98635.80
2023-03-01T07:21:43.023Z,98637.00
2023-03-01T07:24:15.808Z,98642.84
2023-03-01T07:26:50.808Z,98641.59
2023-03-01T07:29:23.560Z,98646.36
2023-03-01T07:31:57.339Z,98647.73
2023-03-01T07:34:30.063Z,98644.95
2023-03-01T07:37:02.582Z,98641.06
2023-03-01T07:39:35.259Z,98638.30
2023-03-01T07:42:08.513Z,98630.85
2023-03-01T07:44:41.187Z,98630.17
2023-03-01T07:47:13.908Z,98629.33
2023-03-01T07:49:48.366Z,98623.84
2023-03-01T07:52:20.869Z,98620.29
2023-03-01T07:54:53.717Z,98619.60
2023-03-01T07:57:26.607Z,98617.64
2023-03-01T07:59:59.457Z,98610.11
2023-03-01T08:02:32.342Z,98609.35
2023-03-01T08:05:05.206Z,98604.80
2023-03-01T08:07:40.853Z,98607.16
2023-03-01T08:10:15.199Z,98606.55
2023-03-01T08:12:47.554Z,98601.17
2023-03-01T08:15:20.879Z,98597.59
2023-03-01T08:17:55.035Z,98596.61
2023-03-01T08:20:28.379Z,98600.29
2023-03-01T08:23:02.375Z,98598.52
2023-03-01T08:25:35.150Z,98596.35
2023-03-01T08:28:08.202Z,98598.19
2023-03-01T08:30:40.993Z,98598.74
2023-03-01T08:33:13.686Z,98598.68
2023-03-01T08:35:46.498Z,98601.42
2023-03-01T08:38:19.007Z,98594.62
2023-03-01T08:40:52.006Z,98596.92
2023-03-01T08:43:28.189Z,98601.23
2023-03-01T08:46:01.190Z,98605.77
2023-03-01T08:48:33.993Z,98604.93
2023-03-01T08:51:14.415Z,98605.30
2023-03-01T08:53:47.403Z,98607.67
2023-03-01T08:56:21.333Z,98610.34
2023-03-01T08:58:53.897Z,98610.84
2023-03-01T09:01:27.256Z,98614.86
2023-03-01T09:04:00.194Z,98617.20
2023-03-01T09:06:35.758Z,98615.29
2023-03-01T09:09:16.386Z,98612.70
2023-03-01T09:11:51.452Z,98610.16
2023-03-01T09:14:24.408Z,98606.95
2023-03-01T09:16:58.499Z,98606.40
2023-03-01T09:19:31.040Z,98604.69
2023-03-01T09:22:05.738Z,98607.98
2023-03-01T09:24:38.906Z,98607.54
2023-03-01T09:27:12.597Z,98605.11
2023-03-01T09:29:43.167Z,98604.13
2023-03-01T09:32:16.042Z,98604.36
2023-03-01T09:35:06.014Z,98607.89
2023-03-01T09:37:41.118Z,98609.13
2023-03-01T09:40:18.736Z,98606.17
2023-03-01T09:43:10.180Z,98609.02
2023-03-01T09:45:46.801Z,98605.47
2023-03-01T09:48:24.820Z,98601.30
2023-03-01T09:50:57.948Z,98607.27
2023-03-01T09:53:37.459Z,98603.61
2023-03-01T09:56:23.019Z,98602.89
2023-03-01T09:59:02.535Z,98600.67
2023-03-01T10:01:46.747Z,98599.47
2023-03-01T10:04:30.528Z,98596.48
2023-03-01T10:07:17.183Z,98598.55
2023-03-01T10:09:50.036Z,98600.09
2023-03-01T10:12:25.182Z,98602.90
2023-03-01T10:15:03.822Z,98601.88
2023-03-01T10:17:40.328Z,98596.58
2023-03-01T10:20:21.322Z,98594.95
2023-03-01T10:22:56.902Z,98595.54
2023-03-01T10:25:44.010Z,98592.14
2023-03-01T10:28:23.431Z,98588.75
2023-03-01T10:30:56.683Z,98586.02
2023-03-01T10:33:33.699Z,98585.00
2023-03-01T10:36:07.557Z,98580.86
2023-03-01T10:38:55.458Z,98578.21
2023-03-01T10:41:30.277Z,98580.61
2023-03-01T10:44:03.656Z,98578.61
2023-03-01T10:46:38.538Z,98574.52
2023-03-01T10:49:27.600Z,98573.55
2023-03-01T10:52:14.790Z,98571.08
2023-03-01T10:54:57.099Z,98566.23
2023-03-01T10:57:42.883Z,98562.89
2023-03-01T11:00:26.238Z,98565.73
2023-03-01T11:03:16.321Z,98558.23
2023-03-01T11:06:03.173Z,98552.62
2023-03-01T11:08:38.968Z,98554.52
2023-03-01T11:11:38.395Z,98552.15
2023-03-01T11:14:27.336Z,98550.95
2023-03-01T11:17:14.144Z,98544.20
2023-03-01T11:20:02.827Z,98538.66
2023-03-01T11:22:38.462Z,98528.71
2023-03-01T11:25:16.888Z,98525.33
2023-03-01T11:27:49.904Z,98525.88
2023-03-01T11:30:27.462Z,98519.88
2023-03-01T11:33:14.302Z,98516.60
2023-03-01T11:35:57.234Z,98510.41
2023-03-01T11:38:32.005Z,98512.14
2023-03-01T11:41:10.720Z,98513.15
2023-03-01T11:43:54.951Z,98511.27
2023-03-01T11:46:52.224Z,98510.23
2023-03-01T11:49:52.727Z,98510.22
2023-03-01T11:52:37.251Z,98509.52
2023-03-01T11:55:39.667Z,98511.08
2023-03-01T11:58:26.078Z,98509.70
2023-03-01T12:01:41.748Z,98505.04
2023-03-01T12:04:33.431Z,98501.13
2023-03-01T12:07:12.100Z,98501.66
2023-03-01T12:10:09.351Z,98502.52
2023-03-01T12:12:55.155Z,98505.08
2023-03-01T12:15:54.280Z,98504.58
2023-03-01T12:18:54.448Z,98498.02
2023-03-01T12:21:41.598Z,98493.91
2023-03-01T12:24:45.929Z,98493.76
2023-03-01T12:27:32.692Z,98495.61
2023-03-01T12:30:20.060Z,98487.71
2023-03-01T12:33:04.138Z,98488.42
2023-03-01T12:35:47.661Z,98484.13
2023-03-01T12:38:36.074Z,98487.40
2023-03-01T12:41:24.928Z,98479.68
2023-03-01T12:44:05.839Z,98476.05
2023-03-01T12:46:54.081Z,98473.45
2023-03-01T12:49:41.197Z,98470.74
2023-03-01T12:52:19.770Z,98463.37
2023-03-01T12:54:56.173Z,98456.32
2023-03-01T12:57:38.380Z,98458.72
2023-03-01T13:00:27.684Z,98455.10
2023-03-01T13:03:12.387Z,98447.52
2023-03-01T13:05:59.143Z,98443.17
2023-03-01T13:08:40.368Z,98439.18
2023-03-01T13:11:21.470Z,98442.48
2023-03-01T13:13:56.060Z,98444.73
2023-03-01T13:16:46.463Z,98442.35
2023-03-01T13:19:21.564Z,98445.84
2023-03-01T13:21:56.639Z,98436.23
2023-03-01T13:24:40.375Z,98436.58
2023-03-01T13:27:30.699Z,98444.30
2023-03-01T13:32:55.316Z,98437.09
2023-03-01T13:35:47.794Z,98435.69
2023-03-01T13:38:47.684Z,98434.48
2023-03-01T13:41:40.910Z,98427.97
2023-03-01T13:44:28.220Z,98422.66
2023-03-01T13:47:18.674Z,98422.61
2023-03-01T13:49:55.008Z,98418.98
2023-03-01T13:52:40.676Z,98418.26
2023-03-01T13:55:23.938Z,98419.30
2023-03-01T13:58:01.579Z,98417.05
2023-03-01T14:00:39.937Z,98420.95
2023-03-01T14:03:17.886Z,98420.77
2023-03-01T14:06:17.308Z,98418.50
2023-03-01T14:09:03.048Z,98420.92
2023-03-01T14:12:02.757Z,98415.38
2023-03-01T14:14:47.742Z,98417.90
2023-03-01T14:17:37.557Z,98421.56
2023-03-01T14:20:19.468Z,98417.59
2023-03-01T14:22:55.560Z,98420.58
2023-03-01T14:25:34.053Z,98422.84
2023-03-01T14:28:17.544Z,98422.48
2023-03-01T14:30:52.510Z,98421.30
2023-03-01T14:33:29.740Z,98413.57
2023-03-01T14:36:08.528Z,98408.59
2023-03-01T14:38:43.542Z,98399.11
2023-03-01T14:41:21.546Z,98398.58
2023-03-01T14:44:01.486Z,98391.34
2023-03-01T14:46:39.051Z,98381.02
2023-03-01T14:49:16.932Z,98381.88
2023-03-01T14:51:55.993Z,98379.65
2023-03-01T14:54:38.059Z,98384.63
2023-03-01T14:57:17.712Z,98386.56
2023-03-01T14:59:55.938Z,98388.64
2023-03-01T15:02:31.028Z,98394.98
2023-03-01T15:05:09.221Z,98395.30
2023-03-01T15:07:50.233Z,98396.88
2023-03-01T15:10:30.677Z,98388.63
2023-03-01T15:13:15.317Z,98388.44
2023-03-01T15:15:49.467Z,98387.60
2023-03-01T15:18:25.194Z,98387.79
2023-03-01T15:20:59.035Z,98389.85
2023-03-01T15:23:31.312Z,98386.73
2023-03-01T15:26:04.888Z,98386.42
2023-03-01T15:28:42.537Z,98388.15
2023-03-01T15:31:24.380Z,98385.41
2023-03-01T15:34:10.221Z,98387.81
2023-03-01T15:36:46.734Z,98386.43
2023-03-01T15:39:44.578Z,98385.75
2023-03-01T15:42:38.397Z,98388.17
2023-03-01T15:45:26.098Z,98391.44
2023-03-01T15:48:03.236Z,98395.19
2023-03-01T15:50:41.242Z,98392.96
2023-03-01T15:53:17.448Z,98395.02
2023-03-01T15:55:51.544Z,98392.09
2023-03-01T15:58:28.021Z,98391.02
2023-03-01T16:01:02.327Z,98390.50
2023-03-01T16:03:35.634Z,98393.55
2023-03-01T16:06:09.234Z,98392.85
2023-03-01T16:08:41.460Z,98398.11
2023-03-01T16:11:19.585Z,98404.06
2023-03-01T16:13:53.378Z,98400.91
2023-03-01T16:16:26.598Z,98398.52
2023-03-01T16:18:59.436Z,98394.31
2023-03-01T16:21:34.645Z,98393.67
2023-03-01T16:24:09.092Z,98389.31
2023-03-01T16:26:43.488Z,98387.67
2023-03-01T16:29:16.821Z,98386.77
2023-03-01T16:31:49.812Z,98390.77
2023-03-01T16:34:23.305Z,98391.39
2023-03-01T16:36:56.110Z,98393.20
2023-03-01T16:39:29.717Z,98399.44
2023-03-01T16:42:04.525Z,98403.02
2023-03-01T16:44:41.856Z,98405.70
2023-03-01T16:47:15.084Z,98407.86
2023-03-01T16:49:47.877Z,98409.16
2023-03-01T16:52:20.552Z,98410.65
2023-03-01T16:54:55.155Z,98415.89
2023-03-01T16:57:27.758Z,98414.42
2023-03-01T17:00:01.113Z,98413.45
2023-03-01T17:02:34.212Z,98410.96
2023-03-01T17:05:08.496Z,98411.23
2023-03-01T17:07:41.748Z,98409.60
2023-03-01T17:10:16.066Z,98410.57
2023-03-01T17:12:50.277Z,98410.61
2023-03-01T17:15:22.976Z,98412.38
2023-03-01T17:17:55.589Z,98416.17
2023-03-01T17:20:29.225Z,98417.94
2023-03-01T17:23:02.899Z,98421.83
2023-03-01T17:25:37.986Z,98423.53
2023-03-01T17:28:21.419Z,98424.24
2023-03-01T17:30:54.695Z,98426.81
2023-03-01T17:33:28.159Z,98425.58
2023-03-01T17:36:04.754Z,98428.38
2023-03-01T17:38:39.156Z,98427.95
2023-03-01T17:41:12.743Z,98426.32
2023-03-01T17:43:46.213Z,98423.34
2023-03-01T17:46:23.560Z,98419.27
2023-03-01T17:48:59.353Z,98414.91
2023-03-01T17:51:33.223Z,98415.21
2023-03-01T17:54:06.627Z,98414.65
2023-03-01T17:56:43.014Z,98412.52
2023-03-01T17:59:18.125Z,98415.70
2023-03-01T18:01:51.337Z,98419.48
2023-03-01T18:04:25.535Z,98416.75
2023-03-01T18:06:59.953Z,98413.95
2023-03-01T18:09:33.028Z,98408.85
2023-03-01T18:12:06.312Z,98410.38
2023-03-01T18:14:39.304Z,98409.35
2023-03-01T18:17:13.581Z,98404.90
2023-03-01T18:19:46.054Z,98406.02
2023-03-01T18:22:19.022Z,98405.39
2023-03-01T18:24:51.415Z,98401.55
2023-03-01T18:27:24.059Z,98397.48
2023-03-01T18:29:58.352Z,98391.70
2023-03-01T18:32:31.205Z,98387.58
2023-03-01T18:35:05.444Z,98386.17
2023-03-01T18:37:38.837Z,98386.23
2023-03-01T18:40:14.356Z,98389.39
2023-03-01T18:42:47.026Z,98388.42
2023-03-01T18:45:20.225Z,98389.14
2023-03-01T18:47:54.186Z,98392.77
2023-03-01T18:50:27.637Z,98390.77
2023-03-01T18:53:04.266Z,98393.39
2023-03-01T18:55:40.807Z,98395.88
2023-03-01T18:58:17.275Z,98401.11
2023-03-01T19:00:51.982Z,98405.04
2023-03-01T19:03:25.213Z,98402.52
2023-03-01T19:06:01.216Z,98405.21
2023-03-01T19:08:36.864Z,98408.97
2023-03-01T19:11:11.870Z,98408.24
2023-03-01T19:13:45.965Z,98403.71
2023-03-01T19:16:21.325Z,98403.90
2023-03-01T19:18:56.804Z,98400.23
2023-03-01T19:21:34.232Z,98397.27
2023-03-01T19:24:10.046Z,98391.06
2023-03-01T19:26:43.724Z,98389.31
2023-03-01T19:29:16.803Z,98390.29
2023-03-01T19:31:50.520Z,98389.84
2023-03-01T19:34:23.422Z,98389.93
2023-03-01T19:36:56.809Z,98391.98
2023-03-01T19:39:30.763Z,98391.63
2023-03-01T19:42:04.904Z,98389.53
2023-03-01T19:44:39.072Z,98392.05
2023-03-01T19:50:49.085Z,98393.67
2023-03-01T19:53:23.606Z,98395.40
2023-03-01T19:56:01.414Z,98399.31
2023-03-01T19:58:35.658Z,98394.54
2023-03-01T20:01:18.674Z,98395.19
2023-03-01T20:03:51.268Z,98396.51
2023-03-01T20:06:25.998Z,98393.03
2023-03-01T20:09:20.995Z,98396.58
2023-03-01T20:11:55.146Z,98397.70
2023-03-01T20:14:27.782Z,98395.98
2023-03-01T20:17:00.565Z,98397.29
2023-03-01T20:19:33.594Z,98397.39
2023-03-01T20:22:06.224Z,98396.82
2023-03-01T20:27:54.340Z,98393.36
2023-03-01T20:30:28.361Z,98396.52
2023-03-01T20:33:01.090Z,98393.20
2023-03-01T20:35:36.435Z,98392.29
2023-03-01T20:38:09.887Z,98395.61
2023-03-01T20:40:44.399Z,98392.34
2023-03-01T20:43:18.671Z,98395.36
2023-03-01T20:45:51.336Z,98392.08
2023-03-01T20:48:24.321Z,98400.86
2023-03-01T20:51:01.928Z,98396.52
2023-03-01T20:53:34.672Z,98395.03
2023-03-01T20:56:09.181Z,98391.42
2023-03-01T20:58:42.333Z,98388.15
2023-03-01T21:01:19.288Z,98389.92
2023-03-01T21:03:51.747Z,98384.02
2023-03-01T21:06:24.892Z,98380.14
2023-03-01T21:08:58.232Z,98385.11
2023-03-01T21:11:30.957Z,98391.34
2023-03-01T21:14:05.758Z,98390.23
2023-03-01T21:16:38.382Z,98386.77
2023-03-01T21:19:13.860Z,98382.95
2023-03-01T21:21:46.757Z,98387.02
2023-03-01T21:24:19.436Z,98389.67
2023-03-01T21:26:52.034Z,98396.59
2023-03-01T21:29:25.307Z,98396.23
2023-03-01T21:31:58.511Z,98396.04
2023-03-01T21:34:31.306Z,98393.84
2023-03-01T21:37:04.347Z,98392.63
2023-03-01T21:39:37.871Z,98388.34
2023-03-01T21:42:10.574Z,98389.00
2023-03-01T21:44:43.141Z,98385.88
2023-03-01T21:47:15.705Z,98391.30
2023-03-01T21:49:48.968Z,98392.98
2023-03-01T21:52:21.565Z,98391.05
2023-03-01T21:55:02.297Z,98394.44
2023-03-01T21:57:34.983Z,98391.82
2023-03-01T22:00:10.386Z,98391.95
2023-03-01T22:02:45.267Z,98390.69
2023-03-01T22:05:17.891Z,98395.52
2023-03-01T22:07:51.270Z,98389.27
2023-03-01T22:10:27.423Z,98388.02
2023-03-01T22:13:00.948Z,98384.23
2023-03-01T22:15:33.511Z,98385.07
2023-03-01T22:18:06.190Z,98380.93
2023-03-01T22:20:38.901Z,98379.36
2023-03-01T22:23:13.099Z,98380.14
2023-03-01T22:25:46.635Z,98381.27
2023-03-01T22:28:20.530Z,98379.70
2023-03-01T22:30:53.084Z,98376.98
2023-03-01T22:33:25.994Z,98370.82
2023-03-01T22:36:00.048Z,98370.59
2023-03-01T22:38:32.707Z,98366.73
2023-03-01T22:41:06.455Z,98369.98
2023-03-01T22:43:39.569Z,98370.57
2023-03-01T22:46:16.942Z,98366.35
2023-03-01T22:48:50.006Z,98362.35
2023-03-01T22:51:25.577Z,98360.60
2023-03-01T22:53:59.076Z,98361.47
2023-03-01T22:56:34.418Z,98358.52
2023-03-01T22:59:10.067Z,98360.00
2023-03-01T23:01:46.610Z,98361.98
2023-03-01T23:04:21.066Z,98359.33
2023-03-01T23:06:55.355Z,98357.80
2023-03-01T23:09:31.102Z,98353.55
2023-03-01T23:12:07.005Z,98359.48
2023-03-01T23:14:40.803Z,98363.78
2023-03-01T23:17:13.293Z,98362.04
2023-03-01T23:19:45.872Z,98364.86
2023-03-01T23:22:18.419Z,98366.52
2023-03-01T23:24:51.066Z,98370.77
2023-03-01T23:27:23.753Z,98374.84
2023-03-01T23:29:56.262Z,98368.11
2023-03-01T23:32:29.659Z,98364.86
2023-03-01T23:35:02.430Z,98367.66
2023-03-01T23:37:35.182Z,98368.46
2023-03-01T23:40:08.783Z,98372.42
2023-03-01T23:42:41.758Z,98372.80
2023-03-01T23:45:15.358Z,98375.94
2023-03-01T23:47:48.030Z,98378.91
2023-03-01T23:50:20.821Z,98373.16
2023-03-01T23:52:53.497Z,98374.39
2023-03-01T23:55:28.247Z,98371.54
2023-03-01T23:58:00.841Z,98372.56
